sensor_id;sensor_type;location;lat;lon;timestamp;pressure;altitude;pressure_sealevel;temperature;humidity
62402;BME280;48440;51.224;22.506;2023-04-09T00:00:35;99842.00;;;8.65;80.28
62402;BME280;48440;51.224;22.506;2023-04-09T00:03:00;99848.00;;;8.67;80.25
62402;BME280;48440;51.224;22.506;2023-04-09T00:05:26;99852.38;;;8.68;80.68
62402;BME280;48440;51.224;22.506;2023-04-09T00:07:52;99848.84;;;8.68;80.60
62402;BME280;48440;51.224;22.506;2023-04-09T00:10:17;99847.78;;;8.69;80.76
62402;BME280;48440;51.224;22.506;2023-04-09T00:12:42;99847.78;;;8.69;81.02
62402;BME280;48440;51.224;22.506;2023-04-09T00:15:08;99843.44;;;8.68;80.10
62402;BME280;48440;51.224;22.506;2023-04-09T00:17:34;99838.63;;;8.70;79.71
62402;BME280;48440;51.224;22.506;2023-04-09T00:19:59;99843.19;;;8.69;80.24
62402;BME280;48440;51.224;22.506;2023-04-09T00:22:25;99837.56;;;8.71;79.96
62402;BME280;48440;51.224;22.506;2023-04-09T00:24:50;99840.25;;;8.71;80.80
62402;BME280;48440;51.224;22.506;2023-04-09T00:27:16;99843.44;;;8.68;81.22
62402;BME280;48440;51.224;22.506;2023-04-09T00:29:41;99839.28;;;8.65;81.11
62402;BME280;48440;51.224;22.506;2023-04-09T00:32:07;99839.53;;;8.64;81.11
62402;BME280;48440;51.224;22.506;2023-04-09T00:34:33;99845.38;;;8.61;81.79
62402;BME280;48440;51.224;22.506;2023-04-09T00:36:58;99842.34;;;8.57;82.13
62402;BME280;48440;51.224;22.506;2023-04-09T00:39:24;99840.09;;;8.54;81.94
62402;BME280;48440;51.224;22.506;2023-04-09T00:41:49;99842.78;;;8.54;82.71
62402;BME280;48440;51.224;22.506;2023-04-09T00:44:19;99841.97;;;8.54;82.35
62402;BME280;48440;51.224;22.506;2023-04-09T00:46:45;99841.38;;;8.52;82.56
62402;BME280;48440;51.224;22.506;2023-04-09T00:49:10;99838.28;;;8.48;82.46
62402;BME280;48440;51.224;22.506;2023-04-09T00:51:36;99832.06;;;8.47;82.55
62402;BME280;48440;51.224;22.506;2023-04-09T00:54:02;99839.13;;;8.48;82.51
62402;BME280;48440;51.224;22.506;2023-04-09T00:56:28;99837.69;;;8.46;82.96
62402;BME280;48440;51.224;22.506;2023-04-09T00:58:54;99842.88;;;8.47;82.67
62402;BME280;48440;51.224;22.506;2023-04-09T01:01:20;99843.09;;;8.46;82.50
62402;BME280;48440;51.224;22.506;2023-04-09T01:03:45;99849.56;;;8.45;82.80
62402;BME280;48440;51.224;22.506;2023-04-09T01:06:21;99845.19;;;8.44;82.59
62402;BME280;48440;51.224;22.506;2023-04-09T01:11:27;99841.81;;;8.48;82.15
62402;BME280;48440;51.224;22.506;2023-04-09T01:14:07;99845.34;;;8.49;82.45
62402;BME280;48440;51.224;22.506;2023-04-09T01:16:36;99848.28;;;8.47;82.54
62402;BME280;48440;51.224;22.506;2023-04-09T01:19:14;99844.38;;;8.43;83.25
62402;BME280;48440;51.224;22.506;2023-04-09T01:21:44;99846.84;;;8.45;83.22
62402;BME280;48440;51.224;22.506;2023-04-09T01:27:07;99844.00;;;8.40;83.45
62402;BME280;48440;51.224;22.506;2023-04-09T01:29:37;99837.38;;;8.36;83.45
62402;BME280;48440;51.224;22.506;2023-04-09T01:32:04;99829.50;;;8.34;83.85
62402;BME280;48440;51.224;22.506;2023-04-09T01:34:32;99842.78;;;8.36;84.21
62402;BME280;48440;51.224;22.506;2023-04-09T01:36:59;99838.22;;;8.36;84.18
62402;BME280;48440;51.224;22.506;2023-04-09T01:39:27;99842.34;;;8.39;84.17
62402;BME280;48440;51.224;22.506;2023-04-09T01:41:53;99848.81;;;8.38;84.26
62402;BME280;48440;51.224;22.506;2023-04-09T01:44:20;99851.50;;;8.38;84.28
62402;BME280;48440;51.224;22.506;2023-04-09T01:46:48;99851.28;;;8.39;83.99
62402;BME280;48440;51.224;22.506;2023-04-09T01:49:15;99849.84;;;8.37;84.02
62402;BME280;48440;51.224;22.506;2023-04-09T01:51:42;99845.94;;;8.33;84.25
62402;BME280;48440;51.224;22.506;2023-04-09T01:54:07;99848.66;;;8.33;84.56
62402;BME280;48440;51.224;22.506;2023-04-09T01:56:41;99848.66;;;8.33;84.56
62402;BME280;48440;51.224;22.506;2023-04-09T01:59:06;99836.16;;;8.32;84.36
62402;BME280;48440;51.224;22.506;2023-04-09T02:01:38;99838.50;;;8.28;84.63
62402;BME280;48440;51.224;22.506;2023-04-09T02:04:08;99849.34;;;8.28;84.14
62402;BME280;48440;51.224;22.506;2023-04-09T02:09:01;99842.72;;;8.24;84.34
62402;BME280;48440;51.224;22.506;2023-04-09T02:11:32;99849.41;;;8.22;84.28
62402;BME280;48440;51.224;22.506;2023-04-09T02:13:58;99848.56;;;8.21;84.20
62402;BME280;48440;51.224;22.506;2023-04-09T02:16:25;99840.25;;;8.23;84.44
62402;BME280;48440;51.224;22.506;2023-04-09T02:18:53;99843.16;;;8.21;84.40
62402;BME280;48440;51.224;22.506;2023-04-09T02:21:21;99842.72;;;8.24;84.14
62402;BME280;48440;51.224;22.506;2023-04-09T02:23:47;99850.59;;;8.26;84.24
62402;BME280;48440;51.224;22.506;2023-04-09T02:26:12;99845.41;;;8.24;84.15
62402;BME280;48440;51.224;22.506;2023-04-09T02:28:37;99832.72;;;8.25;84.62
62402;BME280;48440;51.224;22.506;2023-04-09T02:31:03;99836.25;;;8.25;84.51
62402;BME280;48440;51.224;22.506;2023-04-09T02:33:28;99835.88;;;8.22;84.07
62402;BME280;48440;51.224;22.506;2023-04-09T02:35:54;99834.22;;;8.21;84.23
62402;BME280;48440;51.224;22.506;2023-04-09T02:38:19;99835.28;;;8.20;84.44
62402;BME280;48440;51.224;22.506;2023-04-09T02:40:44;99837.97;;;8.20;84.27
62402;BME280;48440;51.224;22.506;2023-04-09T02:43:10;99834.22;;;8.21;84.85
62402;BME280;48440;51.224;22.506;2023-04-09T02:45:35;99829.88;;;8.20;84.89
62402;BME280;48440;51.224;22.506;2023-04-09T02:48:01;99826.13;;;8.21;84.52
62402;BME280;48440;51.224;22.506;2023-04-09T02:50:26;99823.88;;;8.17;84.71
62402;BME280;48440;51.224;22.506;2023-04-09T02:52:52;99825.13;;;8.15;84.76
62402;BME280;48440;51.224;22.506;2023-04-09T02:55:18;99822.81;;;8.18;84.69
62402;BME280;48440;51.224;22.506;2023-04-09T02:57:44;99816.19;;;8.14;84.62
62402;BME280;48440;51.224;22.506;2023-04-09T03:00:10;99822.66;;;8.13;84.89
62402;BME280;48440;51.224;22.506;2023-04-09T03:02:36;99828.06;;;8.13;84.86
62402;BME280;48440;51.224;22.506;2023-04-09T03:05:02;99822.06;;;8.11;84.51
62402;BME280;48440;51.224;22.506;2023-04-09T03:07:30;99821.84;;;8.13;84.55
62402;BME280;48440;51.224;22.506;2023-04-09T03:09:55;99820.19;;;8.12;84.70
62402;BME280;48440;51.224;22.506;2023-04-09T03:12:20;99822.28;;;8.10;84.54
62402;BME280;48440;51.224;22.506;2023-04-09T03:14:46;99820.63;;;8.09;84.55
62402;BME280;48440;51.224;22.506;2023-04-09T03:17:11;99826.25;;;8.07;84.27
62402;BME280;48440;51.224;22.506;2023-04-09T03:19:37;99816.97;;;8.03;84.41
62402;BME280;48440;51.224;22.506;2023-04-09T03:22:02;99819.91;;;8.02;84.66
62402;BME280;48440;51.224;22.506;2023-04-09T03:24:27;99819.31;;;8.00;84.85
62402;BME280;48440;51.224;22.506;2023-04-09T03:26:53;99821.41;;;7.98;84.83
62402;BME280;48440;51.224;22.506;2023-04-09T03:29:18;99825.16;;;7.97;84.81
62402;BME280;48440;51.224;22.506;2023-04-09T03:31:46;99822.44;;;7.97;84.69
62402;BME280;48440;51.224;22.506;2023-04-09T03:34:12;99814.56;;;7.95;84.78
62402;BME280;48440;51.224;22.506;2023-04-09T03:36:37;99826.19;;;7.96;84.59
62402;BME280;48440;51.224;22.506;2023-04-09T03:39:03;99820.19;;;7.94;84.70
62402;BME280;48440;51.224;22.506;2023-04-09T03:41:28;99818.91;;;7.96;84.44
62402;BME280;48440;51.224;22.506;2023-04-09T03:43:53;99824.56;;;7.95;84.17
62402;BME280;48440;51.224;22.506;2023-04-09T03:46:19;99828.31;;;7.94;84.41
62402;BME280;48440;51.224;22.506;2023-04-09T03:48:44;99828.31;;;7.94;84.25
62402;BME280;48440;51.224;22.506;2023-04-09T03:51:11;99833.09;;;7.92;84.55
62402;BME280;48440;51.224;22.506;2023-04-09T03:53:37;99819.00;;;7.90;84.41
62402;BME280;48440;51.224;22.506;2023-04-09T03:56:03;99816.06;;;7.91;84.12
62402;BME280;48440;51.224;22.506;2023-04-09T03:58:28;99823.94;;;7.93;84.17
62402;BME280;48440;51.224;22.506;2023-04-09T04:00:53;99817.94;;;7.91;83.97
62402;BME280;48440;51.224;22.506;2023-04-09T04:03:19;99811.47;;;7.92;83.94
62402;BME280;48440;51.224;22.506;2023-04-09T04:05:44;99819.81;;;7.90;84.29
62402;BME280;48440;51.224;22.506;2023-04-09T04:08:10;99818.38;;;7.88;84.23
62402;BME280;48440;51.224;22.506;2023-04-09T04:10:35;99815.06;;;7.86;84.47
62402;BME280;48440;51.224;22.506;2023-04-09T04:13:00;99811.78;;;7.83;84.67
62402;BME280;48440;51.224;22.506;2023-04-09T04:15:27;99815.91;;;7.86;84.26
62402;BME280;48440;51.224;22.506;2023-04-09T04:17:52;99819.66;;;7.85;84.30
62402;BME280;48440;51.224;22.506;2023-04-09T04:20:18;99813.19;;;7.86;84.03
62402;BME280;48440;51.224;22.506;2023-04-09T04:22:43;99807.81;;;7.86;83.99
62402;BME280;48440;51.224;22.506;2023-04-09T04:25:09;99822.13;;;7.87;84.38
62402;BME280;48440;51.224;22.506;2023-04-09T04:27:35;99823.78;;;7.88;83.96
62402;BME280;48440;51.224;22.506;2023-04-09T04:30:00;99826.72;;;7.86;84.70
62402;BME280;48440;51.224;22.506;2023-04-09T04:32:26;99830.25;;;7.87;84.71
62402;BME280;48440;51.224;22.506;2023-04-09T04:34:52;99839.41;;;7.86;84.97
62402;BME280;48440;51.224;22.506;2023-04-09T04:37:17;99837.28;;;7.88;85.11
62402;BME280;48440;51.224;22.506;2023-04-09T04:39:43;99842.88;;;7.93;84.69
62402;BME280;48440;51.224;22.506;2023-04-09T04:42:08;99839.94;;;7.94;84.74
62402;BME280;48440;51.224;22.506;2023-04-09T04:44:34;99840.75;;;7.95;84.85
62402;BME280;48440;51.224;22.506;2023-04-09T04:46:59;99845.72;;;7.98;85.11
62402;BME280;48440;51.224;22.506;2023-04-09T04:49:25;99837.78;;;8.03;84.92
62402;BME280;48440;51.224;22.506;2023-04-09T04:51:50;99838.94;;;8.07;84.77
62402;BME280;48440;51.224;22.506;2023-04-09T04:54:15;99843.31;;;8.08;85.15
62402;BME280;48440;51.224;22.506;2023-04-09T04:56:41;99850.38;;;8.09;84.92
62402;BME280;48440;51.224;22.506;2023-04-09T04:59:06;99850.97;;;8.11;84.79
62402;BME280;48440;51.224;22.506;2023-04-09T05:01:32;99855.09;;;8.13;84.67
62402;BME280;48440;51.224;22.506;2023-04-09T05:03:57;99859.22;;;8.16;84.19
62402;BME280;48440;51.224;22.506;2023-04-09T05:06:22;99862.75;;;8.16;84.14
62402;BME280;48440;51.224;22.506;2023-04-09T05:08:48;99873.34;;;8.18;84.62
62402;BME280;48440;51.224;22.506;2023-04-09T05:11:13;99862.75;;;8.16;84.81
62402;BME280;48440;51.224;22.506;2023-04-09T05:13:41;99866.06;;;8.18;84.69
62402;BME280;48440;51.224;22.506;2023-04-09T05:16:06;99862.31;;;8.20;85.14
62402;BME280;48440;51.224;22.506;2023-04-09T05:18:32;99869.59;;;8.19;85.00
62402;BME280;48440;51.224;22.506;2023-04-09T05:20:57;99871.84;;;8.22;85.09
62402;BME280;48440;51.224;22.506;2023-04-09T05:23:22;99865.41;;;8.23;84.91
62402;BME280;48440;51.224;22.506;2023-04-09T05:25:48;99868.56;;;8.20;84.76
62402;BME280;48440;51.224;22.506;2023-04-09T05:28:14;99868.31;;;8.22;84.80
62402;BME280;48440;51.224;22.506;2023-04-09T05:30:44;99866.44;;;8.22;84.66
62402;BME280;48440;51.224;22.506;2023-04-09T05:33:10;99867.88;;;8.25;84.55
62402;BME280;48440;51.224;22.506;2023-04-09T05:35:37;99879.06;;;8.28;85.02
62402;BME280;48440;51.224;22.506;2023-04-09T05:38:03;99878.63;;;8.31;84.59
62402;BME280;48440;51.224;22.506;2023-04-09T05:40:28;99886.06;;;8.36;84.71
62402;BME280;48440;51.224;22.506;2023-04-09T05:42:54;99879.38;;;8.38;84.40
62402;BME280;48440;51.224;22.506;2023-04-09T05:45:20;99874.94;;;8.44;84.39
62402;BME280;48440;51.224;22.506;2023-04-09T05:47:45;99880.75;;;8.47;84.19
62402;BME280;48440;51.224;22.506;2023-04-09T05:50:11;99875.72;;;8.51;84.42
62402;BME280;48440;51.224;22.506;2023-04-09T05:52:36;99883.16;;;8.56;84.97
62402;BME280;48440;51.224;22.506;2023-04-09T05:55:02;99882.22;;;8.62;84.79
62402;BME280;48440;51.224;22.506;2023-04-09T05:57:27;99883.78;;;8.69;84.28
62402;BME280;48440;51.224;22.506;2023-04-09T05:59:54;99885.97;;;8.79;83.79
62402;BME280;48440;51.224;22.506;2023-04-09T06:02:20;99893.72;;;8.87;83.42
62402;BME280;48440;51.224;22.506;2023-04-09T06:04:45;99893.34;;;9.02;82.97
62402;BME280;48440;51.224;22.506;2023-04-09T06:07:11;99898.31;;;9.16;82.86
62402;BME280;48440;51.224;22.506;2023-04-09T06:09:36;99901.22;;;9.45;82.69
62402;BME280;48440;51.224;22.506;2023-04-09T06:12:02;99888.41;;;10.10;81.28
62402;BME280;48440;51.224;22.506;2023-04-09T06:14:28;99888.25;;;10.52;79.97
62402;BME280;48440;51.224;22.506;2023-04-09T06:16:57;99885.41;;;10.59;78.72
62402;BME280;48440;51.224;22.506;2023-04-09T06:19:23;99887.72;;;10.67;76.90
62402;BME280;48440;51.224;22.506;2023-04-09T06:21:48;99891.59;;;10.99;76.02
62402;BME280;48440;51.224;22.506;2023-04-09T06:24:14;99896.75;;;11.12;75.16
62402;BME280;48440;51.224;22.506;2023-04-09T06:26:39;99900.81;;;10.98;74.10
62402;BME280;48440;51.224;22.506;2023-04-09T06:29:05;99899.94;;;10.81;73.01
62402;BME280;48440;51.224;22.506;2023-04-09T06:31:31;99901.69;;;10.59;73.61
62402;BME280;48440;51.224;22.506;2023-04-09T06:33:57;99897.44;;;10.51;74.89
62402;BME280;48440;51.224;22.506;2023-04-09T06:36:23;99907.34;;;10.57;74.82
62402;BME280;48440;51.224;22.506;2023-04-09T06:38:48;99900.63;;;10.60;75.39
62402;BME280;48440;51.224;22.506;2023-04-09T06:41:14;99894.31;;;10.71;75.55
62402;BME280;48440;51.224;22.506;2023-04-09T06:43:39;99901.38;;;11.45;73.47
62402;BME280;48440;51.224;22.506;2023-04-09T06:46:05;99904.41;;;11.94;72.66
62402;BME280;48440;51.224;22.506;2023-04-09T06:48:30;99898.72;;;12.34;70.88
62402;BME280;48440;51.224;22.506;2023-04-09T06:50:56;99896.38;;;12.43;69.30
62402;BME280;48440;51.224;22.506;2023-04-09T06:53:21;99900.28;;;12.30;68.35
62402;BME280;48440;51.224;22.506;2023-04-09T06:55:47;99898.19;;;12.81;67.06
62402;BME280;48440;51.224;22.506;2023-04-09T06:58:12;99902.94;;;12.90;66.15
62402;BME280;48440;51.224;22.506;2023-04-09T07:00:38;99902.38;;;12.88;65.68
62402;BME280;48440;51.224;22.506;2023-04-09T07:03:03;99910.28;;;13.39;65.07
62402;BME280;48440;51.224;22.506;2023-04-09T07:05:29;99900.41;;;13.33;64.11
62402;BME280;48440;51.224;22.506;2023-04-09T07:07:55;99899.00;;;13.30;64.20
62402;BME280;48440;51.224;22.506;2023-04-09T07:10:21;99899.75;;;13.47;63.37
62402;BME280;48440;51.224;22.506;2023-04-09T07:12:46;99900.72;;;13.36;62.45
62402;BME280;48440;51.224;22.506;2023-04-09T07:15:12;99904.13;;;13.21;62.43
62402;BME280;48440;51.224;22.506;2023-04-09T07:17:37;99904.78;;;13.66;62.18
62402;BME280;48440;51.224;22.506;2023-04-09T07:20:03;99905.94;;;14.12;61.01
62402;BME280;48440;51.224;22.506;2023-04-09T07:22:29;99909.97;;;13.99;59.91
62402;BME280;48440;51.224;22.506;2023-04-09T07:24:57;99909.84;;;14.21;59.35
62402;BME280;48440;51.224;22.506;2023-04-09T07:27:25;99910.88;;;14.62;57.95
62402;BME280;48440;51.224;22.506;2023-04-09T07:29:55;99907.50;;;15.12;55.07
62402;BME280;48440;51.224;22.506;2023-04-09T07:32:22;99912.91;;;14.92;56.66
62402;BME280;48440;51.224;22.506;2023-04-09T07:34:50;99922.34;;;14.59;56.28
62402;BME280;48440;51.224;22.506;2023-04-09T07:37:16;99922.91;;;14.61;56.83
62402;BME280;48440;51.224;22.506;2023-04-09T07:39:41;99919.06;;;14.57;57.07
62402;BME280;48440;51.224;22.506;2023-04-09T07:42:06;99921.94;;;14.40;56.95
62402;BME280;48440;51.224;22.506;2023-04-09T07:44:33;99928.13;;;14.20;57.33
62402;BME280;48440;51.224;22.506;2023-04-09T07:47:00;99919.66;;;13.85;58.07
62402;BME280;48440;51.224;22.506;2023-04-09T07:49:25;99927.91;;;13.58;58.83
62402;BME280;48440;51.224;22.506;2023-04-09T07:52:00;99923.53;;;13.25;60.29
62402;BME280;48440;51.224;22.506;2023-04-09T07:54:25;99921.25;;;12.95;60.34
62402;BME280;48440;51.224;22.506;2023-04-09T07:56:51;99927.22;;;12.70;61.39
62402;BME280;48440;51.224;22.506;2023-04-09T07:59:17;99930.81;;;12.54;62.24
62402;BME280;48440;51.224;22.506;2023-04-09T08:01:42;99928.22;;;12.42;62.45
62402;BME280;48440;51.224;22.506;2023-04-09T08:04:08;99925.03;;;12.29;62.41
62402;BME280;48440;51.224;22.506;2023-04-09T08:06:34;99931.78;;;12.26;62.69
62402;BME280;48440;51.224;22.506;2023-04-09T08:09:00;99928.56;;;12.29;62.55
62402;BME280;48440;51.224;22.506;2023-04-09T08:11:26;99934.41;;;12.38;62.06
62402;BME280;48440;51.224;22.506;2023-04-09T08:13:51;99919.75;;;12.61;61.63
62402;BME280;48440;51.224;22.506;2023-04-09T08:16:17;99923.38;;;13.15;60.63
62402;BME280;48440;51.224;22.506;2023-04-09T08:18:43;99923.34;;;13.37;60.41
62402;BME280;48440;51.224;22.506;2023-04-09T08:21:08;99923.19;;;13.48;59.95
62402;BME280;48440;51.224;22.506;2023-04-09T08:23:33;99917.59;;;13.65;59.31
62402;BME280;48440;51.224;22.506;2023-04-09T08:25:59;99923.63;;;13.99;57.30
62402;BME280;48440;51.224;22.506;2023-04-09T08:28:24;99920.41;;;14.12;57.47
62402;BME280;48440;51.224;22.506;2023-04-09T08:30:50;99917.84;;;13.96;57.39
62402;BME280;48440;51.224;22.506;2023-04-09T08:33:16;99919.44;;;13.91;58.84
62402;BME280;48440;51.224;22.506;2023-04-09T08:35:41;99923.97;;;13.76;59.52
62402;BME280;48440;51.224;22.506;2023-04-09T08:38:07;99923.03;;;13.33;58.08
62402;BME280;48440;51.224;22.506;2023-04-09T08:40:33;99914.56;;;13.08;58.39
62402;BME280;48440;51.224;22.506;2023-04-09T08:43:03;99922.78;;;12.86;58.64
62402;BME280;48440;51.224;22.506;2023-04-09T08:45:29;99920.50;;;12.78;59.99
62402;BME280;48440;51.224;22.506;2023-04-09T08:47:55;99930.44;;;12.67;59.56
62402;BME280;48440;51.224;22.506;2023-04-09T08:50:24;99928.81;;;12.66;60.38
62402;BME280;48440;51.224;22.506;2023-04-09T08:52:50;99924.03;;;12.56;59.74
62402;BME280;48440;51.224;22.506;2023-04-09T08:55:15;99925.91;;;12.73;60.04
62402;BME280;48440;51.224;22.506;2023-04-09T08:57:42;99920.84;;;13.08;60.34
62402;BME280;48440;51.224;22.506;2023-04-09T09:00:08;99926.09;;;13.69;60.08
62402;BME280;48440;51.224;22.506;2023-04-09T09:02:34;99918.41;;;14.40;57.30
62402;BME280;48440;51.224;22.506;2023-04-09T09:05:00;99915.16;;;15.05;54.52
62402;BME280;48440;51.224;22.506;2023-04-09T09:07:29;99922.78;;;14.98;53.27
62402;BME280;48440;51.224;22.506;2023-04-09T09:09:56;99910.75;;;14.99;54.12
62402;BME280;48440;51.224;22.506;2023-04-09T09:12:49;99919.53;;;15.16;55.92
62402;BME280;48440;51.224;22.506;2023-04-09T09:15:28;99919.28;;;15.33;52.70
62402;BME280;48440;51.224;22.506;2023-04-09T09:17:58;99917.63;;;15.17;53.45
62402;BME280;48440;51.224;22.506;2023-04-09T09:20:25;99915.97;;;15.01;53.38
62402;BME280;48440;51.224;22.506;2023-04-09T09:22:53;99923.78;;;14.72;54.53
62402;BME280;48440;51.224;22.506;2023-04-09T09:25:19;99928.25;;;14.41;55.91
62402;BME280;48440;51.224;22.506;2023-04-09T09:27:51;99930.50;;;14.12;56.22
62402;BME280;48440;51.224;22.506;2023-04-09T09:30:26;99934.22;;;13.96;57.46
62402;BME280;48440;51.224;22.506;2023-04-09T09:33:12;99933.81;;;13.77;57.84
62402;BME280;48440;51.224;22.506;2023-04-09T09:35:51;99928.47;;;13.60;57.47
62402;BME280;48440;51.224;22.506;2023-04-09T09:38:19;99936.03;;;13.53;57.51
62402;BME280;48440;51.224;22.506;2023-04-09T09:40:45;99928.53;;;13.38;57.85
62402;BME280;48440;51.224;22.506;2023-04-09T09:43:12;99933.63;;;13.30;58.80
62402;BME280;48440;51.224;22.506;2023-04-09T09:45:37;99931.22;;;13.11;58.41
62402;BME280;48440;51.224;22.506;2023-04-09T09:48:04;99931.94;;;13.02;58.11
62402;BME280;48440;51.224;22.506;2023-04-09T09:50:30;99927.78;;;12.94;58.30
62402;BME280;48440;51.224;22.506;2023-04-09T09:53:05;99930.44;;;12.89;59.09
62402;BME280;48440;51.224;22.506;2023-04-09T09:55:33;99924.59;;;12.80;58.38
62402;BME280;48440;51.224;22.506;2023-04-09T09:58:11;99921.88;;;12.80;58.42
62402;BME280;48440;51.224;22.506;2023-04-09T10:00:40;99916.19;;;12.82;58.73
62402;BME280;48440;51.224;22.506;2023-04-09T10:03:14;99919.47;;;12.84;59.38
62402;BME280;48440;51.224;22.506;2023-04-09T10:05:40;99912.75;;;12.91;59.44
62402;BME280;48440;51.224;22.506;2023-04-09T10:08:06;99915.66;;;13.07;60.07
62402;BME280;48440;51.224;22.506;2023-04-09T10:10:32;99911.44;;;13.16;59.06
62402;BME280;48440;51.224;22.506;2023-04-09T10:12:58;99911.66;;;13.14;57.63
62402;BME280;48440;51.224;22.506;2023-04-09T10:15:25;99906.28;;;13.19;57.11
62402;BME280;48440;51.224;22.506;2023-04-09T10:17:52;99915.84;;;13.22;57.68
62402;BME280;48440;51.224;22.506;2023-04-09T10:20:23;99912.31;;;13.21;56.86
62402;BME280;48440;51.224;22.506;2023-04-09T10:22:51;99911.06;;;13.12;56.76
62402;BME280;48440;51.224;22.506;2023-04-09T10:25:17;99910.69;;;13.04;57.06
62402;BME280;48440;51.224;22.506;2023-04-09T10:27:43;99909.03;;;12.98;57.46
62402;BME280;48440;51.224;22.506;2023-04-09T10:30:30;99910.09;;;12.97;57.66
62402;BME280;48440;51.224;22.506;2023-04-09T10:33:10;99909.97;;;12.86;57.19
62402;BME280;48440;51.224;22.506;2023-04-09T10:35:36;99906.19;;;12.87;57.12
62402;BME280;48440;51.224;22.506;2023-04-09T10:38:02;99909.03;;;12.98;57.49
62402;BME280;48440;51.224;22.506;2023-04-09T10:40:27;99911.59;;;13.09;57.50
62402;BME280;48440;51.224;22.506;2023-04-09T10:42:54;99905.53;;;13.24;58.54
62402;BME280;48440;51.224;22.506;2023-04-09T10:45:21;99910.59;;;13.42;58.74
62402;BME280;48440;51.224;22.506;2023-04-09T10:47:49;99904.19;;;13.58;58.13
62402;BME280;48440;51.224;22.506;2023-04-09T10:50:26;99902.94;;;13.71;57.23
62402;BME280;48440;51.224;22.506;2023-04-09T10:52:57;99898.88;;;13.79;56.44
62402;BME280;48440;51.224;22.506;2023-04-09T10:55:34;99902.75;;;13.83;56.35
62402;BME280;48440;51.224;22.506;2023-04-09T10:58:02;99899.72;;;13.79;55.37
62402;BME280;48440;51.224;22.506;2023-04-09T11:00:28;99898.06;;;13.73;55.74
62402;BME280;48440;51.224;22.506;2023-04-09T11:03:12;99899.84;;;13.63;54.89
62402;BME280;48440;51.224;22.506;2023-04-09T11:05:46;99893.78;;;13.50;54.93
62402;BME280;48440;51.224;22.506;2023-04-09T11:08:14;99895.06;;;13.43;55.54
62402;BME280;48440;51.224;22.506;2023-04-09T11:10:44;99900.72;;;13.36;55.59
62402;BME280;48440;51.224;22.506;2023-04-09T11:13:14;99893.88;;;13.34;55.68
62402;BME280;48440;51.224;22.506;2023-04-09T11:15:41;99892.19;;;13.28;56.08
62402;BME280;48440;51.224;22.506;2023-04-09T11:18:07;99895.69;;;13.23;56.19
62402;BME280;48440;51.224;22.506;2023-04-09T11:20:34;99893.16;;;13.16;56.31
62402;BME280;48440;51.224;22.506;2023-04-09T11:23:00;99894.47;;;13.14;56.06
62402;BME280;48440;51.224;22.506;2023-04-09T11:25:28;99894.47;;;13.14;56.25
62402;BME280;48440;51.224;22.506;2023-04-09T11:27:54;99897.47;;;13.12;55.09
62402;BME280;48440;51.224;22.506;2023-04-09T11:30:20;99896.31;;;13.08;55.81
62402;BME280;48440;51.224;22.506;2023-04-09T11:32:47;99892.47;;;13.04;55.33
62402;BME280;48440;51.224;22.506;2023-04-09T11:35:15;99894.09;;;13.05;55.20
62402;BME280;48440;51.224;22.506;2023-04-09T11:37:42;99890.56;;;13.05;55.11
62402;BME280;48440;51.224;22.506;2023-04-09T11:40:21;99885.94;;;13.05;54.99
62402;BME280;48440;51.224;22.506;2023-04-09T11:42:49;99888.16;;;13.08;54.57
62402;BME280;48440;51.224;22.506;2023-04-09T11:45:16;99883.09;;;13.17;54.61
62402;BME280;48440;51.224;22.506;2023-04-09T11:47:43;99884.78;;;13.23;54.36
62402;BME280;48440;51.224;22.506;2023-04-09T11:50:10;99895.22;;;13.31;55.11
62402;BME280;48440;51.224;22.506;2023-04-09T11:52:36;99890.91;;;13.35;54.44
62402;BME280;48440;51.224;22.506;2023-04-09T11:55:07;99886.81;;;13.38;53.86
62402;BME280;48440;51.224;22.506;2023-04-09T12:00:23;99891.72;;;13.36;53.63
62402;BME280;48440;51.224;22.506;2023-04-09T12:02:49;99888.88;;;13.25;53.63
62402;BME280;48440;51.224;22.506;2023-04-09T12:05:23;99894.34;;;13.25;53.45
62402;BME280;48440;51.224;22.506;2023-04-09T12:07:49;99891.59;;;13.25;53.74
62402;BME280;48440;51.224;22.506;2023-04-09T12:10:15;99888.38;;;13.29;54.40
62402;BME280;48440;51.224;22.506;2023-04-09T12:12:45;99891.09;;;13.29;53.81
62402;BME280;48440;51.224;22.506;2023-04-09T12:17:37;99894.38;;;13.31;53.76
62402;BME280;48440;51.224;22.506;2023-04-09T12:20:03;99888.13;;;13.30;52.81
62402;BME280;48440;51.224;22.506;2023-04-09T12:22:31;99888.13;;;13.30;52.72
62402;BME280;48440;51.224;22.506;2023-04-09T12:24:56;99884.31;;;13.31;52.71
62402;BME280;48440;51.224;22.506;2023-04-09T12:27:21;99883.22;;;13.32;53.56
62402;BME280;48440;51.224;22.506;2023-04-09T12:29:47;99880.00;;;13.35;53.62
62402;BME280;48440;51.224;22.506;2023-04-09T12:32:12;99885.25;;;13.42;53.95
62402;BME280;48440;51.224;22.506;2023-04-09T12:34:38;99881.22;;;13.49;54.74
62402;BME280;48440;51.224;22.506;2023-04-09T12:37:03;99889.94;;;13.51;54.72
62402;BME280;48440;51.224;22.506;2023-04-09T12:39:29;99885.31;;;13.52;54.93
62402;BME280;48440;51.224;22.506;2023-04-09T12:41:54;99880.41;;;13.49;54.40
62402;BME280;48440;51.224;22.506;2023-04-09T12:44:20;99877.38;;;13.45;52.68
62402;BME280;48440;51.224;22.506;2023-04-09T12:46:48;99876.03;;;13.48;52.92
62402;BME280;48440;51.224;22.506;2023-04-09T12:49:16;99874.19;;;13.58;53.36
62402;BME280;48440;51.224;22.506;2023-04-09T12:51:42;99870.72;;;13.68;53.52
62402;BME280;48440;51.224;22.506;2023-04-09T12:54:07;99874.59;;;13.72;53.69
62402;BME280;48440;51.224;22.506;2023-04-09T12:56:33;99863.94;;;13.71;53.99
62402;BME280;48440;51.224;22.506;2023-04-09T12:58:58;99871.78;;;13.62;53.57
62402;BME280;48440;51.224;22.506;2023-04-09T13:01:24;99872.22;;;13.49;53.33
62402;BME280;48440;51.224;22.506;2023-04-09T13:03:49;99868.31;;;13.40;53.05
62402;BME280;48440;51.224;22.506;2023-04-09T13:06:15;99873.66;;;13.30;53.41